Time;durP1;ratioP1;P1;durP2;ratioP2;P2;SDS_P1;SDS_P2;PMS_P1;PMS_P2;Temp;Humidity;BMP_temperature;BMP_pressure;BME280_temperature;BME280_humidity;BME280_pressure;Samples;Min_cycle;Max_cycle;Signal;HPM_P1;HPM_P2
2021/12/30 00:01:11;;;;;;;0.70;0.60;;;14.00;99.90;;;;;;4973891;28;20220;-52
2021/12/30 00:03:37;;;;;;;1.27;1.17;;;14.00;99.90;;;;;;4973884;28;20283;-53
2021/12/30 00:06:03;;;;;;;1.15;0.65;;;13.90;99.90;;;;;;4973353;28;20216;-52
2021/12/30 00:08:29;;;;;;;2.22;0.75;;;13.90;99.90;;;;;;4973313;28;20200;-53
2021/12/30 00:10:55;;;;;;;1.27;0.70;;;14.00;99.90;;;;;;4973885;28;20192;-53
2021/12/30 00:13:21;;;;;;;0.70;0.70;;;13.80;99.90;;;;;;4976927;28;20192;-53
2021/12/30 00:15:48;;;;;;;0.80;0.60;;;14.00;99.90;;;;;;4973724;28;20439;-52
2021/12/30 00:18:14;;;;;;;1.02;0.63;;;13.90;99.90;;;;;;4973535;28;20204;-52
2021/12/30 00:20:40;;;;;;;1.17;0.75;;;14.10;99.90;;;;;;4973557;28;20556;-53
2021/12/30 00:23:08;;;;;;;0.90;0.70;;;13.80;99.90;;;;;;4972971;28;20207;-53
2021/12/30 00:25:41;;;;;;;0.80;0.70;;;13.50;99.90;;;;;;4973334;28;20799;-53
2021/12/30 00:28:18;;;;;;;0.80;0.68;;;13.70;99.90;;;;;;4972674;28;20192;-53
2021/12/30 00:30:45;;;;;;;1.08;0.70;;;13.80;99.90;;;;;;4973827;28;20194;-53
2021/12/30 00:33:11;;;;;;;0.90;0.75;;;13.60;99.90;;;;;;4973356;28;20285;-53
2021/12/30 00:35:37;;;;;;;1.00;0.80;;;13.90;99.90;;;;;;4972658;28;20196;-54
2021/12/30 00:38:04;;;;;;;0.97;0.70;;;13.80;99.90;;;;;;4972674;28;20188;-53
2021/12/30 00:40:30;;;;;;;1.48;1.05;;;13.60;99.90;;;;;;4973134;28;20468;-53
2021/12/30 00:42:56;;;;;;;1.20;0.88;;;13.80;99.90;;;;;;4981963;28;20207;-53
2021/12/30 00:45:22;;;;;;;1.17;0.70;;;13.80;99.90;;;;;;4973449;28;20180;-53
2021/12/30 00:47:47;;;;;;;1.67;0.80;;;13.80;99.90;;;;;;4976029;28;20271;-53
2021/12/30 00:50:13;;;;;;;1.10;0.83;;;13.90;99.90;;;;;;4972847;28;20283;-53
2021/12/30 00:52:39;;;;;;;1.55;0.88;;;13.80;99.90;;;;;;4969956;28;20299;-53
2021/12/30 00:55:06;;;;;;;1.17;1.00;;;13.40;99.90;;;;;;4992232;28;20700;-53
2021/12/30 00:57:31;;;;;;;1.50;0.80;;;13.60;99.90;;;;;;4980115;28;20192;-53
2021/12/30 00:59:57;;;;;;;1.10;1.00;;;13.60;99.90;;;;;;4986132;28;20267;-54
2021/12/30 01:02:23;;;;;;;1.43;0.80;;;13.90;99.90;;;;;;4983933;28;20199;-54
2021/12/30 01:04:49;;;;;;;1.37;1.10;;;13.90;99.90;;;;;;4986910;28;20184;-53
2021/12/30 01:07:14;;;;;;;1.02;0.93;;;13.80;99.90;;;;;;4979295;28;20654;-53
2021/12/30 01:09:40;;;;;;;0.77;0.70;;;13.90;99.90;;;;;;4980275;28;20222;-53
2021/12/30 01:12:07;;;;;;;1.60;0.70;;;13.60;99.90;;;;;;4968250;28;20191;-53
2021/12/30 01:14:35;;;;;;;1.30;0.73;;;13.50;99.90;;;;;;4972102;28;20203;-53
2021/12/30 01:17:14;;;;;;;1.58;0.80;;;13.80;99.90;;;;;;4973196;28;20208;-54
2021/12/30 01:19:43;;;;;;;0.70;0.65;;;13.90;99.90;;;;;;4991044;28;20206;-54
2021/12/30 01:22:25;;;;;;;0.70;0.70;;;14.00;99.90;;;;;;4970989;28;20276;-54
2021/12/30 01:24:52;;;;;;;2.10;0.98;;;13.60;99.90;;;;;;4972413;28;20192;-54
2021/12/30 01:27:19;;;;;;;1.38;0.90;;;13.70;99.90;;;;;;4971480;28;20184;-54
2021/12/30 01:29:46;;;;;;;1.70;1.13;;;13.60;99.90;;;;;;4972259;28;20204;-54
2021/12/30 01:32:12;;;;;;;0.80;0.77;;;13.50;99.90;;;;;;4972123;28;20196;-54
2021/12/30 01:34:38;;;;;;;1.63;1.10;;;13.60;99.90;;;;;;4972125;28;20195;-54
2021/12/30 01:37:05;;;;;;;1.08;0.82;;;13.80;99.90;;;;;;4975279;28;20191;-54
2021/12/30 01:39:33;;;;;;;2.30;1.48;;;13.80;99.90;;;;;;4977754;28;20258;-54
2021/12/30 01:42:00;;;;;;;1.33;0.95;;;13.80;99.90;;;;;;4971529;28;20250;-53
2021/12/30 01:44:28;;;;;;;1.35;0.90;;;13.90;99.90;;;;;;4972066;28;20196;-53
2021/12/30 01:46:54;;;;;;;0.80;0.70;;;13.70;99.90;;;;;;4971924;28;20259;-54
2021/12/30 01:49:21;;;;;;;1.30;1.13;;;13.70;99.90;;;;;;4970718;28;20214;-54
2021/12/30 01:51:48;;;;;;;2.00;1.00;;;13.70;99.90;;;;;;4971987;28;20565;-54
2021/12/30 01:54:14;;;;;;;1.80;0.77;;;14.00;99.90;;;;;;4976064;28;20191;-52
2021/12/30 01:56:40;;;;;;;1.90;0.95;;;13.80;99.90;;;;;;4971957;28;20562;-52
2021/12/30 01:59:07;;;;;;;1.80;1.00;;;13.70;99.90;;;;;;4976438;28;20210;-52
2021/12/30 02:01:33;;;;;;;1.88;0.70;;;13.80;99.90;;;;;;4971797;28;20222;-52
2021/12/30 02:03:59;;;;;;;0.93;0.70;;;13.70;99.90;;;;;;4971773;28;20239;-52
2021/12/30 02:06:25;;;;;;;1.70;1.00;;;13.70;99.90;;;;;;4977349;28;20195;-52
2021/12/30 02:08:51;;;;;;;1.50;1.20;;;13.80;99.90;;;;;;4971961;28;20212;-52
2021/12/30 02:11:21;;;;;;;1.85;1.00;;;13.60;99.90;;;;;;4972259;28;20246;-52
2021/12/30 02:13:51;;;;;;;1.77;0.80;;;13.40;99.90;;;;;;4971136;28;20242;-52
2021/12/30 02:16:18;;;;;;;1.80;1.23;;;13.70;99.90;;;;;;4971780;28;20184;-52
2021/12/30 02:18:44;;;;;;;1.33;1.02;;;13.70;99.90;;;;;;4971103;28;20208;-52
2021/12/30 02:21:10;;;;;;;1.30;0.80;;;13.30;99.90;;;;;;4975664;28;20306;-53
2021/12/30 02:23:38;;;;;;;1.73;0.90;;;13.70;99.90;;;;;;4971479;28;20183;-54
2021/12/30 02:26:11;;;;;;;1.55;0.98;;;13.50;99.90;;;;;;4971779;28;20598;-52
2021/12/30 02:28:37;;;;;;;2.08;0.90;;;13.40;99.90;;;;;;4976312;28;20210;-52
2021/12/30 02:31:10;;;;;;;1.73;1.05;;;13.50;99.90;;;;;;4971694;28;20227;-52
2021/12/30 02:33:36;;;;;;;1.80;1.10;;;13.40;99.90;;;;;;4971460;28;20218;-51
2021/12/30 02:36:02;;;;;;;1.90;1.10;;;13.70;99.90;;;;;;4971322;28;20223;-52
2021/12/30 02:38:28;;;;;;;3.15;1.13;;;13.40;99.90;;;;;;4971279;28;20208;-52
2021/12/30 02:40:56;;;;;;;0.97;0.90;;;13.20;99.90;;;;;;4971569;28;20704;-52
2021/12/30 02:43:26;;;;;;;1.88;0.90;;;13.40;99.90;;;;;;4970971;28;20729;-52
2021/12/30 02:45:53;;;;;;;3.90;1.10;;;13.50;99.90;;;;;;4981940;28;20246;-53
2021/12/30 02:48:25;;;;;;;2.30;1.08;;;13.30;99.90;;;;;;4971453;28;20597;-52
2021/12/30 02:50:54;;;;;;;1.63;0.77;;;13.20;99.90;;;;;;4971079;28;20268;-53
2021/12/30 02:53:20;;;;;;;1.55;0.70;;;13.60;99.90;;;;;;4959128;28;20549;-53
2021/12/30 02:55:48;;;;;;;0.68;0.60;;;13.50;99.90;;;;;;4971352;28;20637;-53
2021/12/30 02:58:14;;;;;;;1.83;1.20;;;13.60;99.90;;;;;;4970574;28;20319;-53
2021/12/30 03:00:41;;;;;;;1.50;1.02;;;13.60;99.90;;;;;;4973730;28;20210;-52
2021/12/30 03:03:06;;;;;;;1.55;1.00;;;13.60;99.90;;;;;;4980022;28;20668;-53
2021/12/30 03:05:33;;;;;;;1.40;1.00;;;13.60;99.90;;;;;;4974410;28;20274;-52
2021/12/30 03:07:58;;;;;;;1.00;0.90;;;13.70;99.90;;;;;;4974632;28;20207;-52
2021/12/30 03:10:27;;;;;;;3.13;1.10;;;13.70;99.90;;;;;;4974967;28;20650;-53
2021/12/30 03:12:57;;;;;;;1.27;1.17;;;13.60;99.90;;;;;;4974396;28;20234;-53
2021/12/30 03:15:29;;;;;;;2.17;1.10;;;13.70;99.90;;;;;;4974844;28;20545;-53
2021/12/30 03:17:54;;;;;;;1.40;1.10;;;13.70;99.90;;;;;;4973196;28;20544;-52
2021/12/30 03:20:20;;;;;;;2.20;1.50;;;13.70;99.90;;;;;;4986164;28;20212;-53
2021/12/30 03:22:46;;;;;;;2.10;1.23;;;13.70;99.90;;;;;;4974081;28;20275;-52
2021/12/30 03:25:16;;;;;;;3.53;0.93;;;13.70;99.90;;;;;;4973728;28;20184;-53
2021/12/30 03:27:43;;;;;;;3.05;1.90;;;13.70;99.90;;;;;;4973998;28;20181;-53
2021/12/30 03:30:12;;;;;;;1.48;1.30;;;13.90;99.90;;;;;;4974263;28;20255;-53
2021/12/30 03:32:38;;;;;;;1.45;1.17;;;13.30;99.90;;;;;;4974425;28;20187;-53
2021/12/30 03:35:05;;;;;;;1.95;1.33;;;13.90;99.90;;;;;;4974099;28;20662;-53
2021/12/30 03:37:31;;;;;;;2.33;1.52;;;13.70;99.90;;;;;;4975061;28;20279;-52
2021/12/30 03:39:57;;;;;;;2.20;1.37;;;13.60;99.90;;;;;;4974297;28;20214;-52
2021/12/30 03:42:23;;;;;;;4.30;2.27;;;13.80;99.90;;;;;;4973643;28;20450;-52
2021/12/30 03:44:49;;;;;;;6.23;4.20;;;13.80;99.90;;;;;;4974107;28;20644;-52
2021/12/30 03:47:17;;;;;;;2.20;2.00;;;13.50;99.90;;;;;;4974290;28;20494;-52
2021/12/30 03:49:45;;;;;;;1.50;1.40;;;13.60;99.90;;;;;;4974020;28;20210;-52
2021/12/30 03:52:15;;;;;;;1.75;1.60;;;13.50;99.90;;;;;;4974994;28;20192;-52
2021/12/30 03:54:42;;;;;;;2.00;1.80;;;13.40;99.90;;;;;;4974514;28;20223;-52
2021/12/30 03:57:08;;;;;;;1.75;1.50;;;13.40;99.90;;;;;;4977695;28;20649;-52
2021/12/30 03:59:34;;;;;;;3.78;2.03;;;13.60;99.90;;;;;;4975160;28;20200;-52
2021/12/30 04:02:00;;;;;;;1.70;1.00;;;13.40;99.90;;;;;;4973885;28;20405;-52
2021/12/30 04:04:26;;;;;;;1.97;1.20;;;13.30;99.90;;;;;;4973760;28;20176;-52
2021/12/30 04:06:52;;;;;;;1.23;1.03;;;13.50;99.90;;;;;;4984664;28;20198;-51
2021/12/30 04:09:18;;;;;;;2.50;1.27;;;13.60;99.90;;;;;;4975446;28;20208;-52
2021/12/30 04:11:44;;;;;;;1.13;0.82;;;13.40;99.90;;;;;;4978862;28;20443;-52
2021/12/30 04:14:10;;;;;;;2.83;1.00;;;13.40;99.90;;;;;;4973475;28;20688;-52
2021/12/30 04:16:36;;;;;;;2.80;1.23;;;13.60;99.90;;;;;;4973702;28;20195;-52
2021/12/30 04:19:04;;;;;;;2.10;1.10;;;13.20;99.90;;;;;;4973277;28;20216;-51
2021/12/30 04:21:30;;;;;;;2.92;1.83;;;13.20;99.90;;;;;;4973493;28;20220;-52
2021/12/30 04:23:55;;;;;;;1.40;1.03;;;13.50;99.90;;;;;;4973401;28;20599;-51
2021/12/30 04:26:21;;;;;;;1.53;0.93;;;13.30;99.90;;;;;;4973613;28;20450;-52
2021/12/30 04:28:47;;;;;;;1.30;1.07;;;13.50;99.90;;;;;;4972882;28;20247;-52
2021/12/30 04:31:13;;;;;;;1.40;1.00;;;13.30;99.90;;;;;;4973054;28;20192;-52
2021/12/30 04:33:39;;;;;;;1.27;1.17;;;13.60;99.90;;;;;;4972997;28;20582;-52
2021/12/30 04:36:05;;;;;;;1.30;1.20;;;13.40;99.90;;;;;;4973101;28;20501;-52
2021/12/30 04:38:31;;;;;;;3.10;1.23;;;13.60;99.90;;;;;;4973979;28;20939;-53
2021/12/30 04:40:58;;;;;;;1.00;0.90;;;13.60;99.90;;;;;;4973107;28;20216;-52
2021/12/30 04:43:24;;;;;;;1.45;1.00;;;13.60;99.90;;;;;;4971217;28;20195;-52
2021/12/30 04:45:50;;;;;;;3.93;2.07;;;13.60;99.90;;;;;;4979879;28;20191;-53
2021/12/30 04:48:17;;;;;;;2.00;1.40;;;13.50;99.90;;;;;;4972913;28;20558;-53
2021/12/30 04:50:45;;;;;;;1.50;0.80;;;13.80;99.90;;;;;;4972918;28;20231;-52
2021/12/30 04:53:14;;;;;;;0.98;0.82;;;13.40;99.90;;;;;;4973206;28;20192;-52
2021/12/30 04:55:40;;;;;;;1.15;0.80;;;13.60;99.90;;;;;;4973555;28;20646;-52
2021/12/30 04:58:06;;;;;;;2.47;1.60;;;13.40;99.90;;;;;;4972294;28;20199;-52
2021/12/30 05:00:32;;;;;;;1.57;0.87;;;13.50;99.90;;;;;;4973442;28;20910;-52
2021/12/30 05:05:54;;;;;;;0.90;0.70;;;13.50;99.90;;;;;;4972950;28;20184;-52
2021/12/30 05:08:23;;;;;;;1.45;0.93;;;13.60;99.90;;;;;;4971799;28;20216;-53
2021/12/30 05:10:49;;;;;;;1.40;0.82;;;13.60;99.90;;;;;;4972732;28;20180;-53
2021/12/30 05:13:17;;;;;;;1.65;1.10;;;13.50;99.90;;;;;;4974998;28;20192;-53
2021/12/30 05:15:43;;;;;;;2.72;1.20;;;13.00;99.90;;;;;;4972702;28;20682;-53
2021/12/30 05:18:11;;;;;;;2.80;2.00;;;13.70;99.90;;;;;;4977182;28;20195;-53
2021/12/30 05:20:38;;;;;;;1.75;1.65;;;13.70;99.90;;;;;;4974336;28;20215;-53
2021/12/30 05:23:04;;;;;;;2.33;2.15;;;13.40;99.90;;;;;;4975058;28;20184;-53
2021/12/30 05:25:30;;;;;;;1.33;1.23;;;13.60;99.90;;;;;;4972310;28;20188;-53
2021/12/30 05:27:56;;;;;;;1.27;0.93;;;13.60;99.90;;;;;;4971831;28;20303;-52
2021/12/30 05:30:23;;;;;;;1.77;1.47;;;13.50;99.90;;;;;;4972225;28;20442;-53
2021/12/30 05:32:50;;;;;;;5.72;1.55;;;13.40;99.90;;;;;;4972313;28;20444;-53
2021/12/30 05:35:16;;;;;;;1.65;1.45;;;13.60;99.90;;;;;;4972702;28;20276;-53
2021/12/30 05:37:42;;;;;;;1.75;1.20;;;13.50;99.90;;;;;;4974753;28;20196;-52
2021/12/30 05:40:11;;;;;;;2.03;1.60;;;13.30;99.90;;;;;;4971899;28;20218;-53
2021/12/30 05:42:37;;;;;;;2.38;1.27;;;13.30;99.90;;;;;;4971373;28;20463;-52
2021/12/30 05:45:04;;;;;;;3.03;1.20;;;13.40;99.90;;;;;;4971567;28;20200;-53
2021/12/30 05:47:30;;;;;;;1.20;0.70;;;13.40;99.90;;;;;;4971972;28;20187;-53
2021/12/30 05:49:55;;;;;;;2.40;1.33;;;12.90;99.90;;;;;;4971744;28;20207;-55
2021/12/30 05:52:21;;;;;;;1.33;1.20;;;13.50;99.90;;;;;;4977099;28;20180;-53
2021/12/30 05:54:47;;;;;;;1.03;0.80;;;13.40;99.90;;;;;;4971904;28;20192;-53
2021/12/30 05:57:12;;;;;;;0.83;0.60;;;13.50;99.90;;;;;;4971157;28;20666;-54
2021/12/30 05:59:38;;;;;;;1.60;1.10;;;13.50;99.90;;;;;;4971826;28;20233;-53
2021/12/30 06:02:04;;;;;;;2.37;1.53;;;13.80;99.90;;;;;;4970481;28;20184;-53
2021/12/30 06:04:30;;;;;;;0.90;0.80;;;13.60;99.90;;;;;;4970902;28;20282;-53
2021/12/30 06:06:56;;;;;;;1.63;1.10;;;13.70;99.90;;;;;;4971722;28;20231;-53
2021/12/30 06:09:24;;;;;;;1.13;0.87;;;13.90;99.90;;;;;;4972278;28;20462;-53
2021/12/30 06:11:50;;;;;;;2.03;1.33;;;13.60;99.90;;;;;;4973303;28;20508;-53
2021/12/30 06:14:16;;;;;;;1.20;0.70;;;13.80;99.90;;;;;;4971949;28;20753;-53
2021/12/30 06:16:42;;;;;;;0.83;0.63;;;14.00;99.90;;;;;;4971699;28;20275;-53
2021/12/30 06:19:07;;;;;;;1.70;0.90;;;13.60;99.90;;;;;;4971114;28;20290;-52
2021/12/30 06:21:33;;;;;;;2.07;1.90;;;13.70;99.90;;;;;;4970942;28;20578;-52
2021/12/30 06:23:58;;;;;;;0.93;0.80;;;13.70;99.90;;;;;;4971429;28;20256;-53
2021/12/30 06:26:24;;;;;;;2.27;1.90;;;14.00;99.90;;;;;;4972220;28;20685;-53
2021/12/30 06:28:50;;;;;;;1.57;0.90;;;13.90;99.90;;;;;;4970640;28;20208;-52
2021/12/30 06:31:16;;;;;;;1.53;0.90;;;14.00;99.90;;;;;;4971518;28;20445;-53
2021/12/30 06:33:41;;;;;;;2.23;0.80;;;14.00;99.90;;;;;;4971447;28;20196;-54
2021/12/30 06:36:08;;;;;;;0.77;0.60;;;14.00;99.90;;;;;;4976101;28;20278;-53
2021/12/30 06:38:34;;;;;;;1.85;0.75;;;13.80;99.90;;;;;;4975169;28;20267;-54
2021/12/30 06:41:00;;;;;;;1.80;0.90;;;14.20;99.90;;;;;;4975264;28;20262;-54
2021/12/30 06:43:26;;;;;;;0.80;0.50;;;13.80;99.90;;;;;;4974959;28;20200;-53
2021/12/30 06:45:52;;;;;;;2.10;1.30;;;14.00;99.90;;;;;;4975167;28;20231;-53
2021/12/30 06:48:18;;;;;;;1.57;1.10;;;14.10;99.90;;;;;;4974953;28;20969;-53
2021/12/30 06:50:52;;;;;;;1.90;1.00;;;14.10;99.90;;;;;;4979529;28;20492;-52
2021/12/30 06:53:24;;;;;;;3.40;2.85;;;14.00;99.90;;;;;;4973708;28;20941;-54
2021/12/30 06:55:52;;;;;;;2.17;1.98;;;14.10;99.90;;;;;;4975121;28;20188;-54
2021/12/30 06:58:18;;;;;;;1.25;0.90;;;14.00;99.90;;;;;;4981452;28;20218;-54
2021/12/30 07:00:45;;;;;;;0.65;0.57;;;13.80;99.90;;;;;;4984544;28;20250;-54
2021/12/30 07:03:11;;;;;;;0.70;0.60;;;14.00;99.90;;;;;;4974846;28;20192;-53
2021/12/30 07:05:37;;;;;;;0.70;0.50;;;13.90;99.90;;;;;;4974677;28;20540;-52
2021/12/30 07:08:03;;;;;;;1.00;0.50;;;13.90;99.90;;;;;;4989172;28;20191;-53
2021/12/30 07:10:28;;;;;;;0.90;0.90;;;13.80;99.90;;;;;;4974660;28;20957;-53
2021/12/30 07:12:55;;;;;;;1.57;1.20;;;13.90;99.90;;;;;;4974342;28;20235;-52
2021/12/30 07:15:21;;;;;;;2.13;1.58;;;13.70;99.90;;;;;;4974638;28;20219;-53
2021/12/30 07:17:47;;;;;;;4.75;3.17;;;13.70;99.90;;;;;;4973736;28;20251;-52
2021/12/30 07:20:13;;;;;;;0.88;0.82;;;13.80;99.90;;;;;;4974185;28;20216;-52
2021/12/30 07:22:39;;;;;;;0.73;0.60;;;13.90;99.90;;;;;;4974600;28;20235;-53
2021/12/30 07:25:05;;;;;;;0.80;0.80;;;13.90;99.90;;;;;;4974669;28;20435;-54
2021/12/30 07:27:31;;;;;;;1.10;0.80;;;13.90;99.90;;;;;;4973987;28;20477;-52
2021/12/30 07:29:59;;;;;;;0.77;0.70;;;13.90;99.90;;;;;;4974050;28;20650;-53
2021/12/30 07:32:28;;;;;;;1.88;1.73;;;13.90;99.90;;;;;;4974655;28;20234;-52
2021/12/30 07:34:53;;;;;;;0.95;0.60;;;13.80;99.90;;;;;;4970939;28;20565;-53
2021/12/30 07:37:19;;;;;;;0.90;0.60;;;13.70;99.90;;;;;;4981399;28;20188;-53
2021/12/30 07:39:47;;;;;;;1.13;0.60;;;13.70;99.90;;;;;;4974141;28;20227;-53
2021/12/30 07:42:13;;;;;;;0.65;0.65;;;14.00;99.90;;;;;;4973233;28;20946;-53
2021/12/30 07:44:39;;;;;;;0.80;0.60;;;13.90;99.90;;;;;;4974213;28;20188;-53
2021/12/30 07:47:06;;;;;;;0.80;0.60;;;14.00;99.90;;;;;;4973025;28;20173;-54
2021/12/30 07:49:36;;;;;;;2.58;0.70;;;13.90;99.90;;;;;;4973635;28;20367;-52
2021/12/30 07:52:05;;;;;;;0.82;0.70;;;14.00;99.90;;;;;;4973782;28;20536;-53
2021/12/30 07:54:31;;;;;;;0.70;0.60;;;13.80;99.90;;;;;;4973915;28;20195;-52
2021/12/30 07:56:57;;;;;;;1.02;0.70;;;13.80;99.90;;;;;;4973200;28;20327;-53
2021/12/30 07:59:23;;;;;;;0.70;0.63;;;13.70;99.90;;;;;;4973653;28;20299;-52
2021/12/30 08:01:48;;;;;;;0.70;0.60;;;13.80;99.90;;;;;;4973760;28;20474;-53
2021/12/30 08:04:14;;;;;;;0.70;0.60;;;13.70;99.90;;;;;;4973645;28;20188;-54
2021/12/30 08:06:40;;;;;;;0.90;0.70;;;13.90;99.90;;;;;;4973994;28;20355;-54
2021/12/30 08:09:06;;;;;;;0.80;0.60;;;13.90;99.90;;;;;;4982782;28;20232;-53
2021/12/30 08:11:32;;;;;;;1.13;0.70;;;14.00;99.90;;;;;;4973133;28;20447;-53
2021/12/30 08:13:59;;;;;;;0.60;0.50;;;14.20;99.90;;;;;;4973108;28;20206;-53
2021/12/30 08:16:25;;;;;;;0.75;0.60;;;14.30;99.90;;;;;;4973436;28;20522;-52
2021/12/30 08:18:51;;;;;;;1.00;0.82;;;14.40;99.90;;;;;;4972934;28;20299;-53
2021/12/30 08:21:19;;;;;;;0.73;0.60;;;14.40;99.90;;;;;;4973490;28;20287;-53
2021/12/30 08:23:45;;;;;;;0.70;0.70;;;14.20;99.90;;;;;;4972853;28;20190;-54
2021/12/30 08:26:11;;;;;;;1.25;0.60;;;14.30;99.90;;;;;;4976396;28;20184;-52
2021/12/30 08:28:37;;;;;;;0.60;0.50;;;14.20;99.90;;;;;;4972541;28;20222;-52
2021/12/30 08:31:03;;;;;;;0.67;0.60;;;14.50;99.90;;;;;;4973131;28;20204;-53
2021/12/30 08:33:29;;;;;;;0.77;0.68;;;14.60;99.90;;;;;;4972876;28;20438;-52
2021/12/30 08:35:55;;;;;;;0.70;0.60;;;14.50;99.90;;;;;;4973143;28;20661;-52
2021/12/30 08:38:20;;;;;;;1.00;0.50;;;14.50;99.90;;;;;;4972203;28;20211;-52
2021/12/30 08:40:47;;;;;;;2.20;1.10;;;14.50;99.90;;;;;;4973028;28;20286;-53
2021/12/30 08:43:17;;;;;;;0.70;0.50;;;14.70;99.90;;;;;;4972198;28;20207;-53
2021/12/30 08:45:44;;;;;;;1.00;0.75;;;14.50;99.90;;;;;;4973129;28;20181;-53
2021/12/30 08:48:09;;;;;;;0.90;0.60;;;14.80;99.90;;;;;;4972343;28;20192;-53
2021/12/30 08:50:36;;;;;;;0.77;0.70;;;14.50;99.90;;;;;;4972391;28;20621;-53
2021/12/30 08:53:02;;;;;;;1.55;1.17;;;14.70;99.90;;;;;;4973000;28;20235;-53
2021/12/30 08:55:27;;;;;;;0.70;0.60;;;14.70;99.90;;;;;;4972414;28;21670;-53
2021/12/30 08:57:53;;;;;;;0.70;0.60;;;14.60;99.90;;;;;;4976728;28;20528;-53
2021/12/30 09:00:26;;;;;;;0.80;0.70;;;14.80;99.90;;;;;;4975310;28;20870;-54
2021/12/30 09:02:56;;;;;;;0.60;0.55;;;14.40;99.90;;;;;;4972586;28;20893;-53
2021/12/30 09:05:24;;;;;;;0.70;0.60;;;14.80;99.90;;;;;;4972719;28;20239;-53
2021/12/30 09:07:51;;;;;;;0.90;0.70;;;15.00;99.90;;;;;;4971323;28;20192;-54
2021/12/30 09:10:19;;;;;;;0.98;0.90;;;14.90;99.90;;;;;;4972497;28;20210;-53
2021/12/30 09:12:46;;;;;;;0.77;0.77;;;14.90;99.90;;;;;;4972150;28;20702;-52
2021/12/30 09:15:16;;;;;;;0.70;0.60;;;15.40;99.90;;;;;;4972656;28;20192;-54
2021/12/30 09:17:43;;;;;;;1.02;0.80;;;15.30;99.90;;;;;;4972876;28;20267;-54
2021/12/30 09:20:10;;;;;;;1.08;0.65;;;15.50;99.90;;;;;;4972004;28;20307;-53
2021/12/30 09:22:36;;;;;;;0.82;0.70;;;15.60;99.90;;;;;;4976075;28;20188;-52
2021/12/30 09:25:08;;;;;;;1.10;0.80;;;15.30;99.90;;;;;;4972380;28;20176;-53
2021/12/30 09:27:35;;;;;;;0.60;0.60;;;15.60;99.90;;;;;;4971606;28;20184;-52
2021/12/30 09:30:02;;;;;;;0.68;0.60;;;15.70;99.90;;;;;;4972118;28;20283;-52
2021/12/30 09:32:28;;;;;;;0.90;0.70;;;16.20;99.90;;;;;;4971838;28;20670;-53
2021/12/30 09:34:54;;;;;;;1.00;0.80;;;16.40;99.90;;;;;;4973651;28;20180;-53
2021/12/30 09:37:19;;;;;;;0.80;0.60;;;16.70;99.90;;;;;;4971226;28;20573;-52
2021/12/30 09:39:46;;;;;;;0.80;0.60;;;17.20;99.90;;;;;;4971989;28;20212;-53
2021/12/30 09:42:13;;;;;;;0.70;0.60;;;17.30;99.90;;;;;;4971098;28;20686;-53
2021/12/30 09:44:39;;;;;;;0.73;0.68;;;17.20;99.90;;;;;;4972091;28;20218;-53
2021/12/30 09:47:05;;;;;;;0.93;0.80;;;17.00;99.90;;;;;;4971525;28;20211;-53
2021/12/30 09:49:31;;;;;;;0.70;0.60;;;17.10;99.90;;;;;;4971714;28;20287;-52
2021/12/30 09:51:57;;;;;;;0.93;0.70;;;17.00;99.90;;;;;;4978721;28;20188;-54
2021/12/30 09:54:23;;;;;;;1.23;0.55;;;16.90;99.90;;;;;;4971699;28;20188;-53
2021/12/30 09:56:50;;;;;;;0.60;0.60;;;17.00;99.90;;;;;;4970703;28;20872;-52
2021/12/30 09:59:16;;;;;;;1.75;0.70;;;16.90;99.90;;;;;;4971037;28;20204;-53
2021/12/30 10:01:43;;;;;;;0.80;0.70;;;17.00;99.90;;;;;;4971580;28;20596;-53
2021/12/30 10:04:10;;;;;;;1.00;0.60;;;16.90;99.90;;;;;;4971548;28;20531;-53
2021/12/30 10:06:42;;;;;;;0.80;0.63;;;17.00;99.90;;;;;;4979880;28;20203;-52
2021/12/30 10:09:14;;;;;;;0.80;0.80;;;17.10;99.90;;;;;;4972760;28;20217;-53
2021/12/30 10:11:48;;;;;;;0.80;0.68;;;17.30;99.90;;;;;;4971654;28;20188;-52
2021/12/30 10:14:36;;;;;;;1.00;0.80;;;17.10;99.90;;;;;;4971835;28;20273;-52
2021/12/30 10:17:14;;;;;;;1.13;0.90;;;17.40;99.90;;;;;;4971284;28;20196;-54
2021/12/30 10:19:40;;;;;;;0.60;0.57;;;17.40;99.90;;;;;;4971414;28;20208;-54
2021/12/30 10:22:11;;;;;;;1.13;0.80;;;16.90;99.90;;;;;;4980021;28;20216;-52
2021/12/30 10:24:37;;;;;;;1.63;1.20;;;17.30;99.90;;;;;;4980280;28;20635;-53
2021/12/30 10:27:03;;;;;;;2.80;0.70;;;17.70;99.90;;;;;;4975726;28;20179;-53
2021/12/30 10:29:43;;;;;;;1.77;1.40;;;17.70;99.90;;;;;;4979586;28;20207;-54
2021/12/30 10:32:27;;;;;;;0.70;0.60;;;17.80;99.90;;;;;;4971920;28;20180;-54
2021/12/30 10:35:13;;;;;;;1.08;0.98;;;18.10;99.90;;;;;;4971096;28;20211;-53
2021/12/30 10:37:45;;;;;;;1.42;0.82;;;18.30;99.90;;;;;;4970842;28;20204;-53
2021/12/30 10:40:30;;;;;;;1.00;0.70;;;17.90;99.90;;;;;;4971153;28;20223;-54
2021/12/30 10:43:31;;;;;;;1.15;0.90;;;18.60;99.90;;;;;;4968002;28;20266;-53
2021/12/30 10:46:16;;;;;;;1.33;0.70;;;19.20;99.90;;;;;;4971256;28;20185;-54
2021/12/30 10:48:59;;;;;;;0.80;0.60;;;19.90;99.90;;;;;;4970925;28;20211;-54
2021/12/30 10:52:02;;;;;;;0.80;0.60;;;19.90;99.90;;;;;;4971193;28;20184;-54
2021/12/30 10:54:33;;;;;;;1.30;1.15;;;19.20;99.90;;;;;;4949103;28;20318;-52
2021/12/30 10:57:00;;;;;;;1.00;0.90;;;19.30;99.90;;;;;;4965556;28;20199;-54
2021/12/30 10:59:34;;;;;;;1.10;1.00;;;19.10;99.90;;;;;;4973100;28;20263;-53
2021/12/30 11:02:02;;;;;;;1.42;1.20;;;19.20;99.90;;;;;;4971096;28;20212;-54
2021/12/30 11:04:42;;;;;;;1.10;0.95;;;19.10;99.90;;;;;;4970759;28;20192;-54
2021/12/30 11:07:11;;;;;;;1.10;1.00;;;18.90;99.90;;;;;;4969737;28;20539;-54
2021/12/30 11:09:48;;;;;;;0.70;0.60;;;18.80;99.90;;;;;;4969474;28;20204;-53
2021/12/30 11:12:14;;;;;;;0.88;0.70;;;18.30;99.90;;;;;;4970656;28;20242;-53
2021/12/30 11:14:40;;;;;;;0.75;0.60;;;18.40;99.90;;;;;;4972518;28;20224;-53
2021/12/30 11:17:17;;;;;;;1.10;1.00;;;18.50;99.90;;;;;;4973817;28;20294;-55
2021/12/30 11:19:58;;;;;;;0.90;0.70;;;18.50;99.90;;;;;;4970431;28;20223;-54
2021/12/30 11:22:29;;;;;;;1.05;0.60;;;18.60;99.90;;;;;;4973957;28;20203;-53
2021/12/30 11:24:58;;;;;;;0.85;0.68;;;18.30;99.90;;;;;;4974166;28;20179;-54
2021/12/30 11:27:25;;;;;;;1.05;0.75;;;18.60;99.90;;;;;;4973305;28;20618;-53
2021/12/30 11:29:54;;;;;;;1.77;1.40;;;18.40;99.90;;;;;;4974309;28;20226;-53
2021/12/30 11:32:24;;;;;;;1.55;0.60;;;18.30;99.90;;;;;;4980851;28;20194;-52
2021/12/30 11:34:50;;;;;;;0.70;0.60;;;18.10;99.90;;;;;;4975146;28;20188;-53
2021/12/30 11:37:18;;;;;;;0.90;0.80;;;17.90;99.90;;;;;;4985242;28;20195;-52
2021/12/30 11:39:46;;;;;;;0.80;0.60;;;17.90;99.90;;;;;;4973803;28;20641;-53
2021/12/30 11:42:18;;;;;;;1.00;0.80;;;17.80;99.90;;;;;;4973560;28;20220;-53
2021/12/30 11:44:48;;;;;;;0.98;0.80;;;18.10;99.90;;;;;;4973904;28;20188;-53
2021/12/30 11:47:32;;;;;;;1.10;0.90;;;17.90;99.90;;;;;;4973799;28;20189;-54
2021/12/30 11:50:00;;;;;;;1.65;0.80;;;18.20;99.90;;;;;;4977957;28;20200;-53
2021/12/30 11:52:50;;;;;;;1.02;0.90;;;18.00;99.90;;;;;;4974374;28;20534;-53
2021/12/30 11:55:41;;;;;;;1.50;0.70;;;17.90;99.90;;;;;;4973092;28;20646;-53
2021/12/30 11:58:34;;;;;;;0.70;0.50;;;18.00;99.90;;;;;;4972895;28;20579;-54
2021/12/30 12:01:21;;;;;;;1.65;0.60;;;18.10;99.90;;;;;;4973544;28;20227;-54
2021/12/30 12:03:50;;;;;;;1.65;0.88;;;18.10;99.90;;;;;;4976639;28;20192;-54
2021/12/30 12:06:24;;;;;;;1.25;0.90;;;18.00;99.90;;;;;;4973867;28;20600;-53
2021/12/30 12:08:52;;;;;;;0.70;0.60;;;18.10;99.90;;;;;;4966901;28;20263;-53
2021/12/30 12:11:21;;;;;;;0.75;0.60;;;17.80;99.90;;;;;;4972963;28;20737;-52
2021/12/30 12:13:49;;;;;;;0.70;0.60;;;18.00;99.90;;;;;;4972910;28;20200;-52
2021/12/30 12:16:42;;;;;;;1.45;1.20;;;17.90;99.90;;;;;;4973299;28;20188;-53
2021/12/30 12:19:09;;;;;;;0.80;0.50;;;18.20;99.90;;;;;;4973112;28;20207;-52
2021/12/30 12:21:39;;;;;;;0.80;0.70;;;18.00;99.90;;;;;;4972503;28;20215;-53
2021/12/30 12:24:28;;;;;;;0.65;0.52;;;18.00;99.90;;;;;;4981337;28;20300;-53
2021/12/30 12:26:56;;;;;;;1.17;0.70;;;18.20;99.90;;;;;;4973864;28;20785;-53
2021/12/30 12:29:22;;;;;;;1.20;0.95;;;18.00;99.90;;;;;;4972823;28;20231;-52
2021/12/30 12:32:03;;;;;;;0.83;0.60;;;18.10;99.90;;;;;;4972776;28;20694;-53
2021/12/30 12:34:38;;;;;;;1.00;0.60;;;18.10;99.90;;;;;;4973038;28;20431;-52
2021/12/30 12:37:26;;;;;;;0.80;0.68;;;18.30;99.90;;;;;;4985207;28;20215;-54
2021/12/30 12:40:15;;;;;;;0.95;0.50;;;18.30;99.90;;;;;;4975162;28;20209;-55
2021/12/30 12:42:43;;;;;;;0.85;0.70;;;18.30;99.90;;;;;;4972672;28;20257;-53
2021/12/30 12:45:20;;;;;;;1.00;0.80;;;18.20;99.90;;;;;;4972835;28;20668;-53
2021/12/30 12:47:48;;;;;;;0.80;0.70;;;18.00;99.90;;;;;;4972581;28;20716;-53
2021/12/30 12:50:14;;;;;;;0.70;0.50;;;18.00;99.90;;;;;;4972210;28;20575;-53
2021/12/30 12:52:44;;;;;;;0.80;0.60;;;18.00;99.90;;;;;;4972775;28;20187;-54
2021/12/30 12:55:18;;;;;;;0.73;0.60;;;17.90;99.90;;;;;;4972494;28;20435;-54
2021/12/30 12:57:44;;;;;;;1.00;0.90;;;17.70;99.90;;;;;;4972175;28;20195;-54